sensor_id;sensor_type;location;lat;lon;timestamp;temperature;humidity
54930;DHT22;40833;53.238;6.576;2022-08-19T00:00:14;15.90;99.90
54930;DHT22;40833;53.238;6.576;2022-08-19T00:02:40;15.90;99.90
54930;DHT22;40833;53.238;6.576;2022-08-19T00:05:07;15.80;99.90
54930;DHT22;40833;53.238;6.576;2022-08-19T00:07:34;15.80;99.90
54930;DHT22;40833;53.238;6.576;2022-08-19T00:09:59;15.80;99.90
54930;DHT22;40833;53.238;6.576;2022-08-19T00:12:25;15.80;99.90
54930;DHT22;40833;53.238;6.576;2022-08-19T00:14:51;15.80;99.90
54930;DHT22;40833;53.238;6.576;2022-08-19T00:17:18;15.70;99.90
54930;DHT22;40833;53.238;6.576;2022-08-19T00:19:44;15.70;99.90
54930;DHT22;40833;53.238;6.576;2022-08-19T00:22:09;15.70;99.90
54930;DHT22;40833;53.238;6.576;2022-08-19T00:24:35;15.60;99.90
54930;DHT22;40833;53.238;6.576;2022-08-19T00:27:02;15.60;99.90
54930;DHT22;40833;53.238;6.576;2022-08-19T00:29:28;15.60;99.90
54930;DHT22;40833;53.238;6.576;2022-08-19T00:31:54;15.60;99.90
54930;DHT22;40833;53.238;6.576;2022-08-19T00:34:22;15.50;99.90
54930;DHT22;40833;53.238;6.576;2022-08-19T00:36:48;15.50;99.90
54930;DHT22;40833;53.238;6.576;2022-08-19T00:39:15;15.50;99.90
54930;DHT22;40833;53.238;6.576;2022-08-19T00:41:43;15.50;99.90
54930;DHT22;40833;53.238;6.576;2022-08-19T00:44:12;15.50;99.90
54930;DHT22;40833;53.238;6.576;2022-08-19T00:46:44;15.40;99.90
54930;DHT22;40833;53.238;6.576;2022-08-19T00:49:20;15.40;99.90
54930;DHT22;40833;53.238;6.576;2022-08-19T00:51:51;15.40;99.90
54930;DHT22;40833;53.238;6.576;2022-08-19T00:54:17;15.30;99.90
54930;DHT22;40833;53.238;6.576;2022-08-19T00:56:45;15.30;99.90
54930;DHT22;40833;53.238;6.576;2022-08-19T00:59:13;15.30;99.90
54930;DHT22;40833;53.238;6.576;2022-08-19T01:01:41;15.30;99.90
54930;DHT22;40833;53.238;6.576;2022-08-19T01:04:07;15.30;99.90
54930;DHT22;40833;53.238;6.576;2022-08-19T01:06:35;15.20;99.90
54930;DHT22;40833;53.238;6.576;2022-08-19T01:09:01;15.20;99.90
54930;DHT22;40833;53.238;6.576;2022-08-19T01:11:28;15.20;99.90
54930;DHT22;40833;53.238;6.576;2022-08-19T01:13:55;15.10;99.90
54930;DHT22;40833;53.238;6.576;2022-08-19T01:16:26;15.10;99.90
54930;DHT22;40833;53.238;6.576;2022-08-19T01:18:53;15.10;99.90
54930;DHT22;40833;53.238;6.576;2022-08-19T01:24:43;15.10;99.90
54930;DHT22;40833;53.238;6.576;2022-08-19T01:27:09;15.10;99.90
54930;DHT22;40833;53.238;6.576;2022-08-19T01:29:38;15.10;99.90
54930;DHT22;40833;53.238;6.576;2022-08-19T01:32:04;14.90;99.90
54930;DHT22;40833;53.238;6.576;2022-08-19T01:34:30;15.00;99.90
54930;DHT22;40833;53.238;6.576;2022-08-19T01:36:55;15.00;99.90
54930;DHT22;40833;53.238;6.576;2022-08-19T01:39:23;15.00;99.90
54930;DHT22;40833;53.238;6.576;2022-08-19T01:41:50;15.00;99.90
54930;DHT22;40833;53.238;6.576;2022-08-19T01:44:20;14.90;99.90
54930;DHT22;40833;53.238;6.576;2022-08-19T01:46:50;14.90;99.90
54930;DHT22;40833;53.238;6.576;2022-08-19T01:49:19;14.90;99.90
54930;DHT22;40833;53.238;6.576;2022-08-19T01:51:46;14.90;99.90
54930;DHT22;40833;53.238;6.576;2022-08-19T01:54:13;14.90;99.90
54930;DHT22;40833;53.238;6.576;2022-08-19T01:56:44;14.80;99.90
54930;DHT22;40833;53.238;6.576;2022-08-19T01:59:16;14.90;99.90
54930;DHT22;40833;53.238;6.576;2022-08-19T02:01:42;14.90;99.90
54930;DHT22;40833;53.238;6.576;2022-08-19T02:04:08;14.90;99.90
54930;DHT22;40833;53.238;6.576;2022-08-19T02:06:34;14.90;99.90
54930;DHT22;40833;53.238;6.576;2022-08-19T02:09:00;14.90;99.90
54930;DHT22;40833;53.238;6.576;2022-08-19T02:11:29;14.90;99.90
54930;DHT22;40833;53.238;6.576;2022-08-19T02:13:58;14.90;99.90
54930;DHT22;40833;53.238;6.576;2022-08-19T02:16:24;14.90;99.90
54930;DHT22;40833;53.238;6.576;2022-08-19T02:18:50;14.90;99.90
54930;DHT22;40833;53.238;6.576;2022-08-19T02:21:21;14.90;99.90
54930;DHT22;40833;53.238;6.576;2022-08-19T02:23:48;14.90;99.90
54930;DHT22;40833;53.238;6.576;2022-08-19T02:26:14;14.90;99.90
54930;DHT22;40833;53.238;6.576;2022-08-19T02:28:41;14.90;99.90
54930;DHT22;40833;53.238;6.576;2022-08-19T02:31:13;14.90;99.90
54930;DHT22;40833;53.238;6.576;2022-08-19T02:33:40;15.10;99.90
54930;DHT22;40833;53.238;6.576;2022-08-19T02:36:07;14.90;99.90
54930;DHT22;40833;53.238;6.576;2022-08-19T02:38:34;14.90;99.90
54930;DHT22;40833;53.238;6.576;2022-08-19T02:41:07;15.00;99.90
54930;DHT22;40833;53.238;6.576;2022-08-19T02:43:35;15.00;99.90
54930;DHT22;40833;53.238;6.576;2022-08-19T02:46:21;15.00;99.90
54930;DHT22;40833;53.238;6.576;2022-08-19T02:48:53;15.00;99.90
54930;DHT22;40833;53.238;6.576;2022-08-19T02:51:27;15.00;99.90
54930;DHT22;40833;53.238;6.576;2022-08-19T02:53:53;15.00;99.90
54930;DHT22;40833;53.238;6.576;2022-08-19T02:56:20;15.00;99.90
54930;DHT22;40833;53.238;6.576;2022-08-19T02:58:46;14.90;99.90
54930;DHT22;40833;53.238;6.576;2022-08-19T03:01:29;15.00;99.90
54930;DHT22;40833;53.238;6.576;2022-08-19T03:03:56;15.00;99.90
54930;DHT22;40833;53.238;6.576;2022-08-19T03:06:23;14.90;99.90
54930;DHT22;40833;53.238;6.576;2022-08-19T03:08:49;15.00;99.90
54930;DHT22;40833;53.238;6.576;2022-08-19T03:11:21;14.90;99.90
54930;DHT22;40833;53.238;6.576;2022-08-19T03:13:47;14.90;99.90
54930;DHT22;40833;53.238;6.576;2022-08-19T03:16:20;14.90;99.90
54930;DHT22;40833;53.238;6.576;2022-08-19T03:18:46;14.90;99.90
54930;DHT22;40833;53.238;6.576;2022-08-19T03:21:32;14.90;99.90
54930;DHT22;40833;53.238;6.576;2022-08-19T03:24:00;14.90;99.90
54930;DHT22;40833;53.238;6.576;2022-08-19T03:26:27;14.90;99.90
54930;DHT22;40833;53.238;6.576;2022-08-19T03:28:53;14.90;99.90
54930;DHT22;40833;53.238;6.576;2022-08-19T03:31:21;14.90;99.90
54930;DHT22;40833;53.238;6.576;2022-08-19T03:33:48;14.90;99.90
54930;DHT22;40833;53.238;6.576;2022-08-19T03:36:23;14.90;99.90
54930;DHT22;40833;53.238;6.576;2022-08-19T03:38:54;14.80;99.90
54930;DHT22;40833;53.238;6.576;2022-08-19T03:41:27;14.80;99.90
54930;DHT22;40833;53.238;6.576;2022-08-19T03:43:53;14.80;99.90
54930;DHT22;40833;53.238;6.576;2022-08-19T03:46:22;14.80;99.90
54930;DHT22;40833;53.238;6.576;2022-08-19T03:48:51;15.10;99.90
54930;DHT22;40833;53.238;6.576;2022-08-19T03:51:22;14.80;99.90
54930;DHT22;40833;53.238;6.576;2022-08-19T03:53:50;14.80;99.90
54930;DHT22;40833;53.238;6.576;2022-08-19T03:56:17;14.80;99.90
54930;DHT22;40833;53.238;6.576;2022-08-19T03:58:43;14.80;99.90
54930;DHT22;40833;53.238;6.576;2022-08-19T04:01:12;14.80;99.90
54930;DHT22;40833;53.238;6.576;2022-08-19T04:03:41;14.80;99.90
54930;DHT22;40833;53.238;6.576;2022-08-19T04:06:17;14.80;99.90
54930;DHT22;40833;53.238;6.576;2022-08-19T04:08:45;14.70;99.90
54930;DHT22;40833;53.238;6.576;2022-08-19T04:11:14;14.70;99.90
54930;DHT22;40833;53.238;6.576;2022-08-19T04:13:41;14.70;99.90
54930;DHT22;40833;53.238;6.576;2022-08-19T04:16:09;14.70;99.90
54930;DHT22;40833;53.238;6.576;2022-08-19T04:18:37;14.70;99.90
54930;DHT22;40833;53.238;6.576;2022-08-19T04:21:03;14.60;99.90
54930;DHT22;40833;53.238;6.576;2022-08-19T04:25:57;14.60;99.90
54930;DHT22;40833;53.238;6.576;2022-08-19T04:28:24;14.60;99.90
54930;DHT22;40833;53.238;6.576;2022-08-19T04:30:52;14.70;99.90
54930;DHT22;40833;53.238;6.576;2022-08-19T04:33:20;14.70;99.90
54930;DHT22;40833;53.238;6.576;2022-08-19T04:35:48;14.60;99.90
54930;DHT22;40833;53.238;6.576;2022-08-19T04:38:17;14.70;99.90
54930;DHT22;40833;53.238;6.576;2022-08-19T04:40:48;14.60;99.90
54930;DHT22;40833;53.238;6.576;2022-08-19T04:43:34;14.70;99.90
54930;DHT22;40833;53.238;6.576;2022-08-19T04:46:08;14.70;99.90
54930;DHT22;40833;53.238;6.576;2022-08-19T04:48:35;14.60;99.90
54930;DHT22;40833;53.238;6.576;2022-08-19T04:51:01;14.60;99.90
54930;DHT22;40833;53.238;6.576;2022-08-19T04:53:28;14.60;99.90
54930;DHT22;40833;53.238;6.576;2022-08-19T04:55:59;14.60;99.90
54930;DHT22;40833;53.238;6.576;2022-08-19T04:58:26;14.70;99.90
54930;DHT22;40833;53.238;6.576;2022-08-19T05:00:53;14.70;99.90
54930;DHT22;40833;53.238;6.576;2022-08-19T05:03:19;14.70;99.90
54930;DHT22;40833;53.238;6.576;2022-08-19T05:05:45;14.70;99.90
54930;DHT22;40833;53.238;6.576;2022-08-19T05:08:15;14.70;99.90
54930;DHT22;40833;53.238;6.576;2022-08-19T05:10:49;14.80;99.90
54930;DHT22;40833;53.238;6.576;2022-08-19T05:13:16;14.90;99.90
54930;DHT22;40833;53.238;6.576;2022-08-19T05:15:43;14.90;99.90
54930;DHT22;40833;53.238;6.576;2022-08-19T05:18:09;15.00;99.90
54930;DHT22;40833;53.238;6.576;2022-08-19T05:20:54;15.00;99.90
54930;DHT22;40833;53.238;6.576;2022-08-19T05:23:39;15.10;99.90
54930;DHT22;40833;53.238;6.576;2022-08-19T05:26:05;15.10;99.90
54930;DHT22;40833;53.238;6.576;2022-08-19T05:30:57;15.20;99.90
54930;DHT22;40833;53.238;6.576;2022-08-19T05:33:22;15.20;99.90
54930;DHT22;40833;53.238;6.576;2022-08-19T05:35:50;15.20;99.90
54930;DHT22;40833;53.238;6.576;2022-08-19T05:38:17;15.30;99.90
54930;DHT22;40833;53.238;6.576;2022-08-19T05:40:43;15.30;99.90
54930;DHT22;40833;53.238;6.576;2022-08-19T05:43:15;15.40;99.90
54930;DHT22;40833;53.238;6.576;2022-08-19T05:45:42;15.40;99.90
54930;DHT22;40833;53.238;6.576;2022-08-19T05:48:12;15.40;99.90
54930;DHT22;40833;53.238;6.576;2022-08-19T05:50:40;15.50;99.90
54930;DHT22;40833;53.238;6.576;2022-08-19T05:53:07;15.50;99.90
54930;DHT22;40833;53.238;6.576;2022-08-19T05:55:34;15.60;99.90
54930;DHT22;40833;53.238;6.576;2022-08-19T05:58:02;15.60;99.90
54930;DHT22;40833;53.238;6.576;2022-08-19T06:00:28;15.70;99.90
54930;DHT22;40833;53.238;6.576;2022-08-19T06:02:55;15.70;99.90
54930;DHT22;40833;53.238;6.576;2022-08-19T06:05:32;15.80;99.90
54930;DHT22;40833;53.238;6.576;2022-08-19T06:07:58;15.90;99.90
54930;DHT22;40833;53.238;6.576;2022-08-19T06:10:26;15.90;99.90
54930;DHT22;40833;53.238;6.576;2022-08-19T06:12:52;16.00;99.90
54930;DHT22;40833;53.238;6.576;2022-08-19T06:15:21;16.10;99.90
54930;DHT22;40833;53.238;6.576;2022-08-19T06:17:51;16.10;99.90
54930;DHT22;40833;53.238;6.576;2022-08-19T06:20:16;16.20;99.90
54930;DHT22;40833;53.238;6.576;2022-08-19T06:22:46;16.30;99.90
54930;DHT22;40833;53.238;6.576;2022-08-19T06:25:14;16.40;99.90
54930;DHT22;40833;53.238;6.576;2022-08-19T06:27:40;16.40;99.90
54930;DHT22;40833;53.238;6.576;2022-08-19T06:30:06;16.50;99.90
54930;DHT22;40833;53.238;6.576;2022-08-19T06:32:32;16.50;99.90
54930;DHT22;40833;53.238;6.576;2022-08-19T06:34:58;16.60;99.90
54930;DHT22;40833;53.238;6.576;2022-08-19T06:37:24;16.60;99.90
54930;DHT22;40833;53.238;6.576;2022-08-19T06:39:50;16.70;99.90
54930;DHT22;40833;53.238;6.576;2022-08-19T06:42:16;16.70;99.90
54930;DHT22;40833;53.238;6.576;2022-08-19T06:44:45;16.80;99.90
54930;DHT22;40833;53.238;6.576;2022-08-19T06:47:14;16.90;99.90
54930;DHT22;40833;53.238;6.576;2022-08-19T06:49:41;16.90;99.90
54930;DHT22;40833;53.238;6.576;2022-08-19T06:52:07;17.00;99.90
54930;DHT22;40833;53.238;6.576;2022-08-19T06:54:33;17.10;99.90
54930;DHT22;40833;53.238;6.576;2022-08-19T06:57:00;17.10;99.90
54930;DHT22;40833;53.238;6.576;2022-08-19T06:59:30;17.20;99.90
54930;DHT22;40833;53.238;6.576;2022-08-19T07:01:59;17.20;99.90
54930;DHT22;40833;53.238;6.576;2022-08-19T07:04:28;17.30;99.90
54930;DHT22;40833;53.238;6.576;2022-08-19T07:07:02;17.40;99.90
54930;DHT22;40833;53.238;6.576;2022-08-19T07:09:28;17.50;99.90
54930;DHT22;40833;53.238;6.576;2022-08-19T07:11:55;17.50;99.90
54930;DHT22;40833;53.238;6.576;2022-08-19T07:14:23;17.60;99.90
54930;DHT22;40833;53.238;6.576;2022-08-19T07:16:51;17.70;99.90
54930;DHT22;40833;53.238;6.576;2022-08-19T07:19:18;17.70;99.90
54930;DHT22;40833;53.238;6.576;2022-08-19T07:21:45;17.80;99.90
54930;DHT22;40833;53.238;6.576;2022-08-19T07:24:11;17.80;99.90
54930;DHT22;40833;53.238;6.576;2022-08-19T07:26:40;18.00;99.90
54930;DHT22;40833;53.238;6.576;2022-08-19T07:29:06;18.00;99.90
54930;DHT22;40833;53.238;6.576;2022-08-19T07:31:32;18.10;99.90
54930;DHT22;40833;53.238;6.576;2022-08-19T07:34:03;18.20;99.90
54930;DHT22;40833;53.238;6.576;2022-08-19T07:36:33;18.20;99.90
54930;DHT22;40833;53.238;6.576;2022-08-19T07:39:02;18.30;99.90
54930;DHT22;40833;53.238;6.576;2022-08-19T07:41:29;18.40;99.90
54930;DHT22;40833;53.238;6.576;2022-08-19T07:43:55;18.50;99.90
54930;DHT22;40833;53.238;6.576;2022-08-19T07:46:21;18.50;99.90
54930;DHT22;40833;53.238;6.576;2022-08-19T07:48:48;18.60;99.90
54930;DHT22;40833;53.238;6.576;2022-08-19T07:51:19;18.60;99.90
54930;DHT22;40833;53.238;6.576;2022-08-19T07:53:47;18.70;99.90
54930;DHT22;40833;53.238;6.576;2022-08-19T07:56:17;18.80;99.90
54930;DHT22;40833;53.238;6.576;2022-08-19T07:58:45;18.80;99.90
54930;DHT22;40833;53.238;6.576;2022-08-19T08:01:14;18.70;99.90
54930;DHT22;40833;53.238;6.576;2022-08-19T08:03:41;18.90;99.90
54930;DHT22;40833;53.238;6.576;2022-08-19T08:06:25;19.00;99.90
54930;DHT22;40833;53.238;6.576;2022-08-19T08:09:10;19.10;99.90
54930;DHT22;40833;53.238;6.576;2022-08-19T08:11:41;19.20;99.90
54930;DHT22;40833;53.238;6.576;2022-08-19T08:14:08;19.20;99.90
54930;DHT22;40833;53.238;6.576;2022-08-19T08:16:38;19.30;99.90
54930;DHT22;40833;53.238;6.576;2022-08-19T08:19:07;19.40;99.90
54930;DHT22;40833;53.238;6.576;2022-08-19T08:21:34;19.50;99.90
54930;DHT22;40833;53.238;6.576;2022-08-19T08:23:59;19.60;99.90
54930;DHT22;40833;53.238;6.576;2022-08-19T08:26:25;19.70;99.90
54930;DHT22;40833;53.238;6.576;2022-08-19T08:28:52;19.80;99.90
54930;DHT22;40833;53.238;6.576;2022-08-19T08:31:21;20.40;99.90
54930;DHT22;40833;53.238;6.576;2022-08-19T08:33:47;19.90;99.90
54930;DHT22;40833;53.238;6.576;2022-08-19T08:36:13;19.90;99.90
54930;DHT22;40833;53.238;6.576;2022-08-19T08:38:41;20.10;99.90
54930;DHT22;40833;53.238;6.576;2022-08-19T08:41:18;20.10;99.90
54930;DHT22;40833;53.238;6.576;2022-08-19T08:43:50;20.30;99.90
54930;DHT22;40833;53.238;6.576;2022-08-19T08:46:39;20.30;99.90
54930;DHT22;40833;53.238;6.576;2022-08-19T08:52:07;20.60;99.90
54930;DHT22;40833;53.238;6.576;2022-08-19T08:54:43;20.70;99.90
54930;DHT22;40833;53.238;6.576;2022-08-19T08:57:18;20.70;99.90
54930;DHT22;40833;53.238;6.576;2022-08-19T08:59:47;20.70;99.90
54930;DHT22;40833;53.238;6.576;2022-08-19T09:02:17;20.80;99.90
54930;DHT22;40833;53.238;6.576;2022-08-19T09:04:43;20.90;99.90
54930;DHT22;40833;53.238;6.576;2022-08-19T09:10:28;21.00;99.90
54930;DHT22;40833;53.238;6.576;2022-08-19T09:13:22;21.10;99.90
54930;DHT22;40833;53.238;6.576;2022-08-19T09:16:14;21.20;99.90
54930;DHT22;40833;53.238;6.576;2022-08-19T09:18:46;21.30;99.90
54930;DHT22;40833;53.238;6.576;2022-08-19T09:21:14;21.30;99.90
54930;DHT22;40833;53.238;6.576;2022-08-19T09:23:40;21.30;99.90
54930;DHT22;40833;53.238;6.576;2022-08-19T09:26:14;21.40;99.90
54930;DHT22;40833;53.238;6.576;2022-08-19T09:28:41;21.50;99.90
54930;DHT22;40833;53.238;6.576;2022-08-19T09:31:13;21.50;99.90
54930;DHT22;40833;53.238;6.576;2022-08-19T09:33:39;21.60;99.90
54930;DHT22;40833;53.238;6.576;2022-08-19T09:36:08;21.60;99.90
54930;DHT22;40833;53.238;6.576;2022-08-19T09:38:36;21.70;99.90
54930;DHT22;40833;53.238;6.576;2022-08-19T09:41:07;21.80;99.90
54930;DHT22;40833;53.238;6.576;2022-08-19T09:43:33;21.90;99.90
54930;DHT22;40833;53.238;6.576;2022-08-19T09:46:03;22.00;99.90
54930;DHT22;40833;53.238;6.576;2022-08-19T09:48:32;22.10;99.90
54930;DHT22;40833;53.238;6.576;2022-08-19T09:51:06;22.10;99.90
54930;DHT22;40833;53.238;6.576;2022-08-19T09:53:34;22.30;99.90
54930;DHT22;40833;53.238;6.576;2022-08-19T09:56:01;22.40;99.90
54930;DHT22;40833;53.238;6.576;2022-08-19T09:58:26;22.40;99.90
54930;DHT22;40833;53.238;6.576;2022-08-19T10:00:57;22.50;99.90
54930;DHT22;40833;53.238;6.576;2022-08-19T10:03:25;22.70;99.90
54930;DHT22;40833;53.238;6.576;2022-08-19T10:05:53;22.80;99.90
54930;DHT22;40833;53.238;6.576;2022-08-19T10:08:29;22.80;99.90
54930;DHT22;40833;53.238;6.576;2022-08-19T10:10:56;23.00;99.90
54930;DHT22;40833;53.238;6.576;2022-08-19T10:13:27;23.00;99.90
54930;DHT22;40833;53.238;6.576;2022-08-19T10:15:55;23.10;99.90
54930;DHT22;40833;53.238;6.576;2022-08-19T10:18:23;23.10;99.90
54930;DHT22;40833;53.238;6.576;2022-08-19T10:20:50;23.30;99.90
54930;DHT22;40833;53.238;6.576;2022-08-19T10:23:18;23.40;99.90
54930;DHT22;40833;53.238;6.576;2022-08-19T10:25:45;23.40;99.90
54930;DHT22;40833;53.238;6.576;2022-08-19T10:28:11;23.50;99.90
54930;DHT22;40833;53.238;6.576;2022-08-19T10:30:39;23.60;99.90
54930;DHT22;40833;53.238;6.576;2022-08-19T10:33:06;23.70;99.90
54930;DHT22;40833;53.238;6.576;2022-08-19T10:35:32;23.90;99.90
54930;DHT22;40833;53.238;6.576;2022-08-19T10:37:57;24.00;99.90
54930;DHT22;40833;53.238;6.576;2022-08-19T10:40:28;24.20;99.90
54930;DHT22;40833;53.238;6.576;2022-08-19T10:42:55;24.30;99.90
54930;DHT22;40833;53.238;6.576;2022-08-19T10:45:22;24.40;99.90
54930;DHT22;40833;53.238;6.576;2022-08-19T10:47:50;24.50;99.90
54930;DHT22;40833;53.238;6.576;2022-08-19T10:50:16;24.50;99.90
54930;DHT22;40833;53.238;6.576;2022-08-19T10:53:04;24.60;99.90
54930;DHT22;40833;53.238;6.576;2022-08-19T10:55:30;24.70;99.90
54930;DHT22;40833;53.238;6.576;2022-08-19T10:58:18;24.80;99.90
54930;DHT22;40833;53.238;6.576;2022-08-19T11:00:57;25.00;99.90
54930;DHT22;40833;53.238;6.576;2022-08-19T11:03:24;25.20;99.90
54930;DHT22;40833;53.238;6.576;2022-08-19T11:06:04;25.30;99.90
54930;DHT22;40833;53.238;6.576;2022-08-19T11:08:30;25.40;99.90
54930;DHT22;40833;53.238;6.576;2022-08-19T11:10:59;25.40;99.90
54930;DHT22;40833;53.238;6.576;2022-08-19T11:13:27;25.50;99.90
54930;DHT22;40833;53.238;6.576;2022-08-19T11:15:58;25.50;99.90
54930;DHT22;40833;53.238;6.576;2022-08-19T11:18:23;25.50;99.90
54930;DHT22;40833;53.238;6.576;2022-08-19T11:20:49;25.50;99.90
54930;DHT22;40833;53.238;6.576;2022-08-19T11:23:15;25.60;99.90
54930;DHT22;40833;53.238;6.576;2022-08-19T11:25:40;25.60;99.90
54930;DHT22;40833;53.238;6.576;2022-08-19T11:28:06;25.60;99.90
54930;DHT22;40833;53.238;6.576;2022-08-19T11:30:32;25.70;99.90
54930;DHT22;40833;53.238;6.576;2022-08-19T11:32:59;25.80;99.90
54930;DHT22;40833;53.238;6.576;2022-08-19T11:35:26;25.90;99.90
54930;DHT22;40833;53.238;6.576;2022-08-19T11:37:52;26.10;99.90
54930;DHT22;40833;53.238;6.576;2022-08-19T11:40:17;26.20;99.90
54930;DHT22;40833;53.238;6.576;2022-08-19T11:42:43;26.20;99.90
54930;DHT22;40833;53.238;6.576;2022-08-19T11:45:23;26.20;99.90
54930;DHT22;40833;53.238;6.576;2022-08-19T11:47:49;26.10;99.90
54930;DHT22;40833;53.238;6.576;2022-08-19T11:50:15;26.10;99.90
54930;DHT22;40833;53.238;6.576;2022-08-19T11:52:42;26.00;99.90
54930;DHT22;40833;53.238;6.576;2022-08-19T11:55:09;26.00;99.90
54930;DHT22;40833;53.238;6.576;2022-08-19T11:59:57;25.90;99.90
54930;DHT22;40833;53.238;6.576;2022-08-19T12:02:23;25.80;99.90
54930;DHT22;40833;53.238;6.576;2022-08-19T12:04:49;25.70;99.90
54930;DHT22;40833;53.238;6.576;2022-08-19T12:07:15;25.70;99.90
54930;DHT22;40833;53.238;6.576;2022-08-19T12:09:40;25.70;99.90
54930;DHT22;40833;53.238;6.576;2022-08-19T12:12:07;25.70;99.90
54930;DHT22;40833;53.238;6.576;2022-08-19T12:18:44;25.70;99.90
54930;DHT22;40833;53.238;6.576;2022-08-19T12:21:20;26.00;99.90
54930;DHT22;40833;53.238;6.576;2022-08-19T12:26:20;26.10;99.90
54930;DHT22;40833;53.238;6.576;2022-08-19T12:52:38;26.50;99.90
54930;DHT22;40833;53.238;6.576;2022-08-19T12:55:05;26.50;99.90
54930;DHT22;40833;53.238;6.576;2022-08-19T12:57:31;26.50;99.90
54930;DHT22;40833;53.238;6.576;2022-08-19T13:05:17;26.40;99.90
54930;DHT22;40833;53.238;6.576;2022-08-19T13:07:45;26.30;99.90
54930;DHT22;40833;53.238;6.576;2022-08-19T13:10:13;26.20;99.90
54930;DHT22;40833;53.238;6.576;2022-08-19T13:12:41;26.10;99.90
54930;DHT22;40833;53.238;6.576;2022-08-19T13:15:08;26.00;99.90
54930;DHT22;40833;53.238;6.576;2022-08-19T13:17:34;26.00;99.90
54930;DHT22;40833;53.238;6.576;2022-08-19T13:20:00;26.00;99.90
54930;DHT22;40833;53.238;6.576;2022-08-19T13:22:26;25.90;99.90
54930;DHT22;40833;53.238;6.576;2022-08-19T13:24:52;25.90;99.90
54930;DHT22;40833;53.238;6.576;2022-08-19T13:27:18;26.00;99.90
54930;DHT22;40833;53.238;6.576;2022-08-19T13:36:19;26.00;99.90
54930;DHT22;40833;53.238;6.576;2022-08-19T13:38:45;25.90;99.90
54930;DHT22;40833;53.238;6.576;2022-08-19T13:41:11;25.80;99.90
54930;DHT22;40833;53.238;6.576;2022-08-19T13:43:36;25.70;99.90
54930;DHT22;40833;53.238;6.576;2022-08-19T13:46:09;25.60;99.90
54930;DHT22;40833;53.238;6.576;2022-08-19T13:48:35;25.70;99.90
54930;DHT22;40833;53.238;6.576;2022-08-19T13:51:04;25.60;99.90
54930;DHT22;40833;53.238;6.576;2022-08-19T13:58:22;25.50;99.90
54930;DHT22;40833;53.238;6.576;2022-08-19T14:00:48;24.90;99.90
54930;DHT22;40833;53.238;6.576;2022-08-19T14:03:14;25.00;99.90
54930;DHT22;40833;53.238;6.576;2022-08-19T14:05:40;25.00;99.90
54930;DHT22;40833;53.238;6.576;2022-08-19T14:08:06;25.10;99.90
54930;DHT22;40833;53.238;6.576;2022-08-19T14:10:32;25.20;99.90
54930;DHT22;40833;53.238;6.576;2022-08-19T14:13:01;25.30;99.90
54930;DHT22;40833;53.238;6.576;2022-08-19T14:20:10;25.40;99.90
54930;DHT22;40833;53.238;6.576;2022-08-19T14:22:39;25.50;99.90
54930;DHT22;40833;53.238;6.576;2022-08-19T14:25:07;25.40;99.90
54930;DHT22;40833;53.238;6.576;2022-08-19T14:27:35;25.40;99.90
54930;DHT22;40833;53.238;6.576;2022-08-19T14:30:02;25.30;99.90
54930;DHT22;40833;53.238;6.576;2022-08-19T14:32:28;25.30;99.90
54930;DHT22;40833;53.238;6.576;2022-08-19T14:34:54;25.40;99.90
54930;DHT22;40833;53.238;6.576;2022-08-19T14:37:20;25.60;99.90
54930;DHT22;40833;53.238;6.576;2022-08-19T14:39:46;26.00;99.90
54930;DHT22;40833;53.238;6.576;2022-08-19T14:51:57;26.30;99.90
54930;DHT22;40833;53.238;6.576;2022-08-19T14:54:23;25.60;99.90
54930;DHT22;40833;53.238;6.576;2022-08-19T14:56:49;25.60;99.90
54930;DHT22;40833;53.238;6.576;2022-08-19T14:59:15;25.60;99.90
54930;DHT22;40833;53.238;6.576;2022-08-19T15:01:41;25.60;99.90
54930;DHT22;40833;53.238;6.576;2022-08-19T15:04:07;25.60;99.90
54930;DHT22;40833;53.238;6.576;2022-08-19T15:06:33;25.70;99.90
54930;DHT22;40833;53.238;6.576;2022-08-19T15:08:59;25.60;99.90
54930;DHT22;40833;53.238;6.576;2022-08-19T15:11:26;25.80;99.90
54930;DHT22;40833;53.238;6.576;2022-08-19T15:13:54;25.80;99.90
54930;DHT22;40833;53.238;6.576;2022-08-19T15:22:52;25.80;99.90
54930;DHT22;40833;53.238;6.576;2022-08-19T15:25:19;26.20;99.90
54930;DHT22;40833;53.238;6.576;2022-08-19T15:27:46;26.50;99.90
54930;DHT22;40833;53.238;6.576;2022-08-19T15:30:24;27.10;99.90
54930;DHT22;40833;53.238;6.576;2022-08-19T15:32:51;27.90;99.90
54930;DHT22;40833;53.238;6.576;2022-08-19T15:35:20;28.40;99.90
54930;DHT22;40833;53.238;6.576;2022-08-19T15:39:39;28.60;99.90
54930;DHT22;40833;53.238;6.576;2022-08-19T16:02:49;28.60;99.90
54930;DHT22;40833;53.238;6.576;2022-08-19T16:05:33;25.80;99.90
54930;DHT22;40833;53.238;6.576;2022-08-19T16:08:17;25.60;99.90
54930;DHT22;40833;53.238;6.576;2022-08-19T16:10:43;25.40;99.90
54930;DHT22;40833;53.238;6.576;2022-08-19T16:13:09;25.20;99.90
54930;DHT22;40833;53.238;6.576;2022-08-19T16:15:35;25.10;99.90
54930;DHT22;40833;53.238;6.576;2022-08-19T16:18:01;25.00;99.90
54930;DHT22;40833;53.238;6.576;2022-08-19T16:24:34;24.80;99.90
54930;DHT22;40833;53.238;6.576;2022-08-19T16:26:59;24.50;99.90
54930;DHT22;40833;53.238;6.576;2022-08-19T16:29:26;24.40;99.90
54930;DHT22;40833;53.238;6.576;2022-08-19T16:31:53;24.50;99.90
54930;DHT22;40833;53.238;6.576;2022-08-19T16:34:20;24.50;99.90
54930;DHT22;40833;53.238;6.576;2022-08-19T16:36:46;24.40;99.90
54930;DHT22;40833;53.238;6.576;2022-08-19T16:39:14;24.40;99.90
54930;DHT22;40833;53.238;6.576;2022-08-19T16:41:41;24.30;99.90
54930;DHT22;40833;53.238;6.576;2022-08-19T16:44:09;24.10;99.90
54930;DHT22;40833;53.238;6.576;2022-08-19T16:46:36;24.00;99.90
54930;DHT22;40833;53.238;6.576;2022-08-19T16:49:03;24.00;99.90
54930;DHT22;40833;53.238;6.576;2022-08-19T16:51:29;24.00;99.90
54930;DHT22;40833;53.238;6.576;2022-08-19T16:53:56;24.00;99.90
54930;DHT22;40833;53.238;6.576;2022-08-19T16:56:21;24.00;99.90
54930;DHT22;40833;53.238;6.576;2022-08-19T16:58:50;24.00;99.90
54930;DHT22;40833;53.238;6.576;2022-08-19T17:01:17;23.90;99.90
54930;DHT22;40833;53.238;6.576;2022-08-19T17:03:43;23.90;99.90
54930;DHT22;40833;53.238;6.576;2022-08-19T17:06:14;23.80;99.90
54930;DHT22;40833;53.238;6.576;2022-08-19T17:08:44;23.80;99.90
54930;DHT22;40833;53.238;6.576;2022-08-19T17:11:09;23.80;99.90
54930;DHT22;40833;53.238;6.576;2022-08-19T17:13:35;23.60;99.90
54930;DHT22;40833;53.238;6.576;2022-08-19T17:16:03;23.50;99.90
54930;DHT22;40833;53.238;6.576;2022-08-19T17:18:29;23.30;99.90
54930;DHT22;40833;53.238;6.576;2022-08-19T17:20:57;23.20;99.90
54930;DHT22;40833;53.238;6.576;2022-08-19T17:23:23;23.10;99.90
54930;DHT22;40833;53.238;6.576;2022-08-19T17:25:50;23.20;99.90
54930;DHT22;40833;53.238;6.576;2022-08-19T17:28:25;23.30;99.90